createdAt,value
2022-10-17T00:02:03.193Z,75.78
2022-10-17T00:06:08.757Z,75.36
2022-10-17T00:10:12.183Z,74.93
2022-10-17T00:14:16.989Z,74.75
2022-10-17T00:18:20.399Z,74.46
2022-10-17T00:22:23.792Z,74.93
2022-10-17T00:26:28.244Z,74.93
2022-10-17T00:30:33.550Z,75.18
2022-10-17T00:34:37.254Z,75.03
2022-10-17T00:38:41.267Z,75.64
2022-10-17T00:42:44.506Z,75.57
2022-10-17T00:46:49.401Z,75.82
2022-10-17T00:50:53.368Z,75.86
2022-10-17T00:55:00.668Z,76.03
2022-10-17T01:03:09.075Z,75.80
2022-10-17T01:07:12.628Z,75.89
2022-10-17T01:11:28.292Z,75.96
2022-10-17T01:15:40.963Z,75.71
2022-10-17T01:20:12.072Z,76.00
2022-10-17T01:25:01.467Z,75.87
2022-10-17T01:29:30.571Z,76.15
2022-10-17T01:33:45.834Z,76.38
2022-10-17T01:37:55.184Z,76.73
2022-10-17T01:42:04.132Z,76.88
2022-10-17T01:46:15.157Z,77.33
2022-10-17T01:50:25.334Z,77.82
2022-10-17T01:54:34.820Z,78.06
2022-10-17T01:58:42.845Z,78.00
2022-10-17T02:02:49.104Z,78.18
2022-10-17T02:06:53.457Z,77.95
2022-10-17T02:11:00.963Z,77.51
2022-10-17T02:15:30.816Z,77.13
2022-10-17T02:19:48.316Z,77.14
2022-10-17T02:24:00.186Z,77.28
2022-10-17T02:28:12.110Z,76.67
2022-10-17T02:32:19.244Z,76.73
2022-10-17T02:36:26.327Z,76.41
2022-10-17T02:40:32.938Z,76.44
2022-10-17T02:44:38.819Z,75.92
2022-10-17T02:48:45.848Z,75.99
2022-10-17T02:52:54.708Z,75.77
2022-10-17T02:57:03.103Z,75.52
2022-10-17T03:01:07.238Z,75.34
2022-10-17T03:05:11.556Z,75.10
2022-10-17T03:09:16.152Z,74.53
2022-10-17T03:13:21.594Z,74.55
2022-10-17T03:17:25.576Z,74.46
2022-10-17T03:21:28.685Z,74.52
2022-10-17T03:25:32.171Z,74.50
2022-10-17T03:29:37.224Z,74.39
2022-10-17T03:33:40.833Z,74.96
2022-10-17T03:37:44.087Z,75.33
2022-10-17T03:41:47.598Z,75.42
2022-10-17T03:45:52.585Z,75.50
2022-10-17T03:49:56.125Z,75.37
2022-10-17T03:53:59.089Z,75.50
2022-10-17T03:58:02.537Z,75.12
2022-10-17T04:02:07.488Z,75.33
2022-10-17T04:06:13.768Z,75.48
2022-10-17T04:10:17.116Z,75.46
2022-10-17T04:14:21.264Z,75.93
2022-10-17T04:18:26.317Z,75.86
2022-10-17T04:22:29.954Z,75.61
2022-10-17T04:26:33.351Z,76.16
2022-10-17T04:30:38.009Z,75.96
2022-10-17T04:34:45.287Z,75.89
2022-10-17T04:38:49.159Z,75.88
2022-10-17T04:42:53.173Z,75.55
2022-10-17T04:46:56.214Z,75.79
2022-10-17T04:51:02.987Z,76.24
2022-10-17T04:55:07.193Z,76.24
2022-10-17T04:59:10.192Z,76.26
2022-10-17T05:03:13.427Z,76.42
2022-10-17T05:07:18.281Z,76.35
2022-10-17T05:11:23.962Z,76.00
2022-10-17T05:15:27.428Z,75.67
2022-10-17T05:19:30.965Z,75.21
2022-10-17T05:23:35.653Z,75.12
2022-10-17T05:27:39.970Z,74.95
2022-10-17T05:31:43.100Z,74.86
2022-10-17T05:35:46.588Z,74.54
2022-10-17T05:39:51.617Z,74.48
2022-10-17T05:43:55.559Z,74.29
2022-10-17T05:47:59.159Z,74.20
2022-10-17T05:52:03.277Z,74.55
2022-10-17T05:56:10.060Z,74.35
2022-10-17T06:00:14.490Z,74.10
2022-10-17T06:04:17.588Z,73.46
2022-10-17T06:08:21.817Z,73.90
2022-10-17T06:12:26.887Z,74.22
2022-10-17T06:16:30.414Z,74.29
2022-10-17T06:20:33.945Z,74.56
2022-10-17T06:24:37.499Z,74.93
2022-10-17T06:28:42.906Z,74.98
2022-10-17T06:32:46.464Z,74.88
2022-10-17T06:36:49.943Z,74.89
2022-10-17T06:40:54.595Z,74.64
2022-10-17T06:44:59.433Z,74.67
2022-10-17T06:49:02.944Z,74.69
2022-10-17T06:53:06.056Z,74.87
2022-10-17T06:57:09.552Z,74.76
2022-10-17T07:01:15.357Z,74.55
2022-10-17T07:05:19.828Z,74.64
2022-10-17T07:09:23.509Z,74.24
2022-10-17T07:13:26.776Z,74.28
2022-10-17T07:17:32.091Z,74.27
2022-10-17T07:21:39.009Z,74.09
2022-10-17T07:25:42.867Z,73.78
2022-10-17T07:29:45.921Z,73.70
2022-10-17T07:33:51.066Z,73.61
2022-10-17T07:37:54.477Z,73.13
2022-10-17T07:41:59.368Z,73.22
2022-10-17T07:46:04.313Z,72.58
2022-10-17T07:50:09.740Z,72.33
2022-10-17T07:54:14.793Z,71.84
2022-10-17T07:58:18.554Z,71.88
2022-10-17T08:02:24.642Z,71.46
2022-10-17T08:06:29.711Z,70.38
2022-10-17T08:10:33.093Z,70.59
2022-10-17T08:14:36.906Z,69.75
2022-10-17T08:18:42.273Z,69.75
2022-10-17T08:22:53.794Z,69.73
2022-10-17T08:26:58.934Z,69.45
2022-10-17T08:31:06.119Z,69.79
2022-10-17T08:35:10.770Z,69.01
2022-10-17T08:39:15.611Z,69.24
2022-10-17T08:43:35.204Z,69.71
2022-10-17T08:47:41.158Z,68.46
2022-10-17T08:51:51.470Z,68.81
2022-10-17T08:55:56.675Z,67.70
2022-10-17T09:00:00.781Z,67.53
2022-10-17T09:04:21.041Z,68.25
2022-10-17T09:08:35.339Z,67.31
2022-10-17T09:12:48.730Z,67.49
2022-10-17T09:17:06.111Z,67.47
2022-10-17T09:21:20.821Z,67.54
2022-10-17T09:25:24.706Z,65.35
2022-10-17T09:29:36.088Z,64.66
2022-10-17T09:33:53.839Z,64.33
2022-10-17T09:37:58.502Z,65.37
2022-10-17T09:42:03.255Z,63.86
2022-10-17T09:46:14.127Z,63.84
2022-10-17T09:50:23.434Z,62.16
2022-10-17T09:54:35.661Z,64.17
2022-10-17T09:58:43.153Z,62.25
2022-10-17T10:02:47.491Z,61.03
2022-10-17T10:07:04.793Z,64.06
2022-10-17T10:11:13.770Z,61.22
2022-10-17T10:15:39.069Z,63.58
2022-10-17T10:19:52.417Z,62.72
2022-10-17T10:24:08.042Z,62.74
2022-10-17T10:28:12.942Z,61.69
2022-10-17T10:32:22.071Z,61.27
2022-10-17T10:36:27.384Z,60.14
2022-10-17T10:40:35.627Z,57.67
2022-10-17T10:44:42.772Z,54.21
2022-10-17T10:48:55.951Z,53.28
2022-10-17T10:53:15.623Z,56.64
2022-10-17T10:57:22.919Z,55.09
2022-10-17T11:01:40.625Z,52.69
2022-10-17T11:05:48.297Z,51.42
2022-10-17T11:09:56.430Z,54.08
2022-10-17T11:14:04.261Z,53.76
2022-10-17T11:18:09.844Z,53.49
2022-10-17T11:22:17.817Z,54.62
2022-10-17T11:26:28.953Z,53.62
2022-10-17T11:30:42.721Z,53.54
2022-10-17T11:34:50.158Z,53.18
2022-10-17T11:38:59.062Z,52.60
2022-10-17T11:43:07.502Z,53.28
2022-10-17T11:47:18.966Z,52.99
2022-10-17T11:55:46.480Z,49.89
2022-10-17T12:00:08.405Z,52.58
2022-10-17T12:04:23.272Z,53.03
2022-10-17T12:08:33.186Z,51.88
2022-10-17T12:12:37.386Z,49.10
2022-10-17T12:16:47.825Z,51.46
2022-10-17T12:20:58.568Z,51.80
2022-10-17T12:25:05.504Z,50.23
2022-10-17T12:29:30.165Z,53.65
2022-10-17T12:33:37.700Z,51.14
2022-10-17T12:38:01.853Z,49.25
2022-10-17T12:42:05.437Z,49.30
2022-10-17T12:46:10.317Z,48.71
2022-10-17T12:50:49.351Z,51.92
2022-10-17T12:55:11.454Z,49.89
2022-10-17T12:59:19.574Z,48.62
2022-10-17T13:03:26.426Z,49.13
2022-10-17T13:07:31.129Z,48.55
2022-10-17T13:11:39.668Z,50.91
2022-10-17T13:15:47.847Z,50.34
2022-10-17T13:19:51.695Z,48.23
2022-10-17T13:23:55.491Z,50.51
2022-10-17T13:28:09.564Z,51.99
2022-10-17T13:32:14.148Z,49.79
2022-10-17T13:36:19.320Z,49.81
2022-10-17T13:40:49.464Z,50.19
2022-10-17T13:44:50.411Z,49.80
2022-10-17T13:48:53.815Z,49.45
2022-10-17T13:53:17.927Z,51.95
2022-10-17T13:57:22.854Z,50.09
2022-10-17T14:01:29.454Z,50.26
2022-10-17T14:05:34.624Z,49.64
2022-10-17T14:09:37.654Z,50.16
2022-10-17T14:13:41.685Z,49.04
2022-10-17T14:17:47.276Z,50.96
2022-10-17T14:21:50.892Z,50.46
2022-10-17T14:26:07.138Z,52.75
2022-10-17T14:30:55.869Z,53.57
2022-10-17T14:35:18.762Z,52.88
2022-10-17T14:39:29.027Z,51.44
2022-10-17T14:43:33.822Z,51.97
2022-10-17T14:47:44.510Z,52.19
2022-10-17T14:52:17.692Z,54.51
2022-10-17T14:56:24.975Z,53.56
2022-10-17T15:00:28.652Z,53.33
2022-10-17T15:04:31.743Z,53.75
2022-10-17T15:08:36.869Z,54.73
2022-10-17T15:12:47.901Z,54.67
2022-10-17T15:17:02.134Z,54.85
2022-10-17T15:21:25.681Z,56.09
2022-10-17T15:25:32.498Z,57.02
2022-10-17T15:29:35.617Z,57.84
2022-10-17T15:33:39.368Z,58.43
2022-10-17T15:37:42.928Z,58.81
2022-10-17T15:41:48.479Z,59.55
2022-10-17T15:50:17.886Z,61.79
2022-10-17T15:54:21.629Z,62.19
2022-10-17T15:58:29.033Z,63.22
2022-10-17T16:02:33.848Z,63.64
2022-10-17T16:06:36.951Z,64.12
2022-10-17T16:10:42.195Z,65.21
2022-10-17T16:14:47.124Z,65.66
2022-10-17T16:18:51.191Z,65.91
2022-10-17T16:23:00.177Z,66.38
2022-10-17T16:27:03.216Z,66.48
2022-10-17T16:31:20.447Z,66.55
2022-10-17T16:35:27.335Z,67.53
2022-10-17T16:39:30.328Z,67.81
2022-10-17T16:43:36.678Z,68.44
2022-10-17T16:47:41.111Z,68.87
2022-10-17T16:51:44.559Z,69.52
2022-10-17T16:55:47.914Z,70.16
2022-10-17T17:04:15.554Z,70.41
2022-10-17T17:08:18.770Z,71.29
2022-10-17T17:12:22.270Z,71.33
2022-10-17T17:16:26.969Z,71.57
2022-10-17T17:20:31.756Z,72.06
2022-10-17T17:24:34.859Z,72.66
2022-10-17T17:28:39.129Z,72.65
2022-10-17T17:32:42.469Z,72.63
2022-10-17T17:36:47.616Z,72.40
2022-10-17T17:40:51.370Z,73.05
2022-10-17T17:44:55.004Z,73.17
2022-10-17T17:48:58.160Z,73.42
2022-10-17T17:53:03.102Z,72.78
2022-10-17T17:57:06.279Z,72.95
2022-10-17T18:01:14.850Z,72.95
2022-10-17T18:05:18.314Z,73.15
2022-10-17T18:09:24.311Z,73.37
2022-10-17T18:13:27.776Z,73.71
2022-10-17T18:17:31.594Z,73.89
2022-10-17T18:21:35.143Z,74.05
2022-10-17T18:25:40.381Z,74.20
2022-10-17T18:29:45.851Z,74.95
2022-10-17T18:33:49.121Z,74.60
2022-10-17T18:37:52.323Z,74.68
2022-10-17T18:41:57.404Z,74.87
2022-10-17T18:46:08.580Z,74.84
2022-10-17T18:50:15.129Z,75.33
2022-10-17T18:54:20.938Z,74.99
2022-10-17T18:58:26.455Z,75.03
2022-10-17T19:02:33.160Z,74.93
2022-10-17T19:06:39.951Z,75.00
2022-10-17T19:10:44.747Z,74.95
2022-10-17T19:14:53.232Z,74.76
2022-10-17T19:18:59.859Z,75.00
2022-10-17T19:23:02.997Z,75.29
2022-10-17T19:27:07.593Z,75.32
2022-10-17T19:31:16.844Z,74.94
2022-10-17T19:35:21.332Z,74.81
2022-10-17T19:39:25.394Z,74.63
2022-10-17T19:43:29.653Z,74.68
2022-10-17T19:47:34.869Z,75.07
2022-10-17T19:51:38.369Z,74.77
2022-10-17T19:55:42.862Z,74.00
2022-10-17T19:59:46.701Z,75.25
2022-10-17T20:03:52.487Z,76.18
2022-10-17T20:07:55.603Z,76.01
2022-10-17T20:11:58.666Z,77.27
2022-10-17T20:16:02.139Z,77.13
2022-10-17T20:20:09.032Z,77.34
2022-10-17T20:24:15.550Z,77.14
2022-10-17T20:28:18.541Z,76.83
2022-10-17T20:32:22.067Z,76.31
2022-10-17T20:36:27.208Z,76.33
2022-10-17T20:40:35.167Z,76.63
2022-10-17T20:44:38.936Z,75.99
2022-10-17T20:48:42.350Z,75.85
2022-10-17T20:52:46.815Z,75.21
2022-10-17T20:56:50.393Z,74.40
2022-10-17T21:00:53.784Z,74.34
2022-10-17T21:04:57.180Z,74.40
2022-10-17T21:09:01.618Z,74.58
2022-10-17T21:13:04.820Z,74.17
2022-10-17T21:17:07.935Z,73.45
2022-10-17T21:21:13.787Z,73.43
2022-10-17T21:25:18.635Z,73.02
2022-10-17T21:29:22.331Z,73.68
2022-10-17T21:33:25.432Z,74.41
2022-10-17T21:37:29.068Z,74.58
2022-10-17T21:41:34.226Z,74.76
2022-10-17T21:45:38.212Z,75.12
2022-10-17T21:49:41.235Z,75.23
2022-10-17T21:53:45.292Z,75.21
2022-10-17T21:57:50.583Z,75.79
2022-10-17T22:01:54.170Z,75.95
2022-10-17T22:06:07.089Z,76.42
2022-10-17T22:10:20.360Z,75.32
2022-10-17T22:14:26.694Z,76.62
2022-10-17T22:18:30.619Z,76.55
2022-10-17T22:22:33.959Z,77.08
2022-10-17T22:26:39.541Z,77.19
2022-10-17T22:30:44.000Z,76.40
2022-10-17T22:34:48.483Z,76.33
2022-10-17T22:38:51.633Z,77.21
2022-10-17T22:42:55.711Z,77.31
2022-10-17T22:47:00.512Z,77.64
2022-10-17T22:51:04.119Z,77.29
2022-10-17T22:55:09.048Z,77.41
2022-10-17T22:59:12.503Z,77.71
2022-10-17T23:03:17.864Z,77.07
2022-10-17T23:07:21.363Z,77.17
2022-10-17T23:11:24.792Z,76.81
2022-10-17T23:15:28.230Z,76.65
2022-10-17T23:19:34.634Z,76.26
2022-10-17T23:23:37.825Z,76.30
2022-10-17T23:27:40.816Z,76.33
2022-10-17T23:31:44.250Z,76.32
2022-10-17T23:35:49.170Z,76.40
2022-10-17T23:39:52.936Z,76.26
2022-10-17T23:43:55.976Z,75.88
2022-10-17T23:47:59.637Z,75.47
2022-10-17T23:52:04.745Z,75.44
2022-10-17T23:56:10.604Z,74.99
